0TX1 – Local Weather Observations

Pecan Plantation

This weather station is operated by a private user located just north of the field. Data is gathered via OpenWeatherMap.org.

Last updated:
2020-02-25 10:17:54(4:17 am)

Temperature: 42.7 °F

Sunrise / Sunset: 7:01 am / 6:26 pm

Civil Dawn / Dusk: 6:36 am / 6:50 pm

Nearby METARs

KGDJ 251015Z AUTO 29007KT 10SM CLR 05/03 A2994 RMK AO2 T00520032

KCPT 251015Z AUTO 33006KT 9SM CLR 05/04 A2993 RMK A01

KFWS 251015Z AUTO 32006KT 10SM CLR 07/04 A2992 RMK AO2 T00650040 PWINO

KSEP 251015Z AUTO 34006KT 10SM CLR 06/03 A2994 RMK AO2 T00570033